Time;durP1;ratioP1;P1;durP2;ratioP2;P2;SDS_P1;SDS_P2;PMS_P1;PMS_P2;Temp;Humidity;BMP_temperature;BMP_pressure;BME280_temperature;BME280_humidity;BME280_pressure;Samples;Min_cycle;Max_cycle;Signal;HPM_P1;HPM_P2
2023/04/07 00:02:02;;;;;;;13.60;6.70;;;4.50;99.90;;;;;;4200929;28;20468;-69
2023/04/07 00:04:04;;;;;;;13.23;6.40;;;4.50;99.90;;;;;;4200491;28;20451;-70
2023/04/07 00:06:06;;;;;;;14.47;7.20;;;4.50;99.90;;;;;;4204777;28;20533;-70
2023/04/07 00:08:08;;;;;;;11.50;7.30;;;4.40;99.90;;;;;;4199406;28;20448;-70
2023/04/07 00:10:10;;;;;;;12.57;7.03;;;4.40;99.90;;;;;;4205119;28;20517;-70
2023/04/07 00:12:12;;;;;;;11.53;7.33;;;4.40;99.90;;;;;;4199042;28;20514;-70
2023/04/07 00:14:14;;;;;;;16.30;8.20;;;4.40;99.90;;;;;;4205080;28;20518;-70
2023/04/07 00:16:16;;;;;;;14.17;7.97;;;4.40;99.90;;;;;;4202720;28;20483;-70
2023/04/07 00:18:19;;;;;;;13.07;7.67;;;4.30;99.90;;;;;;4203038;28;20455;-70
2023/04/07 00:20:21;;;;;;;13.60;7.63;;;4.30;99.90;;;;;;4198432;28;20452;-69
2023/04/07 00:22:24;;;;;;;13.87;7.70;;;4.30;99.90;;;;;;4198669;28;20491;-69
2023/04/07 00:24:26;;;;;;;11.37;7.20;;;4.30;99.90;;;;;;4202295;28;20439;-69
2023/04/07 00:26:30;;;;;;;14.20;7.63;;;4.20;99.90;;;;;;4199958;28;20465;-69
2023/04/07 00:28:32;;;;;;;12.43;6.63;;;4.20;99.90;;;;;;4197365;28;20496;-70
2023/04/07 00:30:34;;;;;;;10.93;7.20;;;4.20;99.90;;;;;;4205700;28;20479;-70
2023/04/07 00:32:36;;;;;;;11.87;7.00;;;4.10;99.90;;;;;;4205956;28;20550;-69
2023/04/07 00:34:39;;;;;;;11.90;7.27;;;4.10;99.90;;;;;;4206613;28;20456;-70
2023/04/07 00:36:41;;;;;;;12.00;7.00;;;4.10;99.90;;;;;;4200223;28;20489;-69
2023/04/07 00:38:43;;;;;;;11.57;6.73;;;4.10;99.90;;;;;;4203777;28;20463;-69
2023/04/07 00:40:45;;;;;;;12.33;6.83;;;4.10;99.90;;;;;;4196273;28;20486;-69
2023/04/07 00:42:47;;;;;;;13.23;6.93;;;4.00;99.90;;;;;;4201686;28;20464;-69
2023/04/07 00:44:49;;;;;;;14.20;7.30;;;4.10;99.90;;;;;;4199484;28;20488;-70
2023/04/07 00:46:51;;;;;;;10.40;6.43;;;4.00;99.90;;;;;;4201368;28;20476;-69
2023/04/07 00:48:53;;;;;;;13.37;6.40;;;4.00;99.90;;;;;;4195489;28;20583;-70
2023/04/07 00:50:56;;;;;;;12.57;7.27;;;4.00;99.90;;;;;;4203508;28;20538;-70
2023/04/07 00:52:59;;;;;;;11.73;7.20;;;4.00;99.90;;;;;;4201655;28;20546;-70
2023/04/07 00:55:01;;;;;;;13.17;7.57;;;3.90;99.90;;;;;;4202894;28;20467;-70
2023/04/07 00:57:03;;;;;;;11.57;6.97;;;3.90;99.90;;;;;;4200498;28;20515;-69
2023/04/07 00:59:05;;;;;;;11.63;6.73;;;3.90;99.90;;;;;;4195666;28;20488;-70
2023/04/07 01:01:10;;;;;;;14.07;6.90;;;3.90;99.90;;;;;;4203448;28;20467;-70
2023/04/07 01:03:18;;;;;;;12.00;7.37;;;3.90;99.90;;;;;;4199621;28;20952;-69
2023/04/07 01:05:25;;;;;;;12.23;6.70;;;3.80;99.90;;;;;;4203173;28;21123;-69
2023/04/07 01:07:35;;;;;;;13.47;7.13;;;3.80;99.90;;;;;;4203660;28;20468;-69
2023/04/07 01:09:41;;;;;;;14.53;7.33;;;3.80;99.90;;;;;;4205705;28;20546;-70
2023/04/07 01:11:48;;;;;;;13.63;7.57;;;3.80;99.90;;;;;;4208742;28;20547;-69
2023/04/07 01:13:51;;;;;;;14.57;7.27;;;3.80;99.90;;;;;;4197815;28;20581;-69
2023/04/07 01:15:56;;;;;;;11.37;7.47;;;3.70;99.90;;;;;;4202192;28;21066;-70
2023/04/07 01:18:01;;;;;;;13.77;7.00;;;3.70;99.90;;;;;;4210013;28;20459;-69
2023/04/07 01:20:06;;;;;;;10.80;6.97;;;3.70;99.90;;;;;;4201008;28;20495;-69
2023/04/07 01:22:14;;;;;;;12.80;6.70;;;3.70;99.90;;;;;;4207482;28;20456;-70
2023/04/07 01:24:39;;;;;;;13.33;7.27;;;3.70;99.90;;;;;;4203386;28;21005;-70
2023/04/07 01:26:41;;;;;;;14.00;7.00;;;3.60;99.90;;;;;;4205346;28;20509;-70
2023/04/07 01:29:15;;;;;;;13.47;7.40;;;3.60;99.90;;;;;;4206771;28;20463;-69
2023/04/07 01:31:20;;;;;;;13.80;6.63;;;3.60;99.90;;;;;;4160139;28;20522;-69
2023/04/07 01:33:23;;;;;;;14.23;7.73;;;3.50;99.90;;;;;;4202982;28;21068;-69
2023/04/07 01:35:26;;;;;;;12.87;7.00;;;3.60;99.90;;;;;;4203465;28;21296;-69
2023/04/07 01:37:29;;;;;;;12.73;7.27;;;3.50;99.90;;;;;;4198501;28;20890;-70
2023/04/07 01:39:32;;;;;;;11.80;6.40;;;3.60;99.90;;;;;;4198474;28;20467;-70
2023/04/07 01:41:34;;;;;;;12.77;6.90;;;3.50;99.90;;;;;;4209572;28;20555;-71
2023/04/07 01:43:39;;;;;;;12.87;6.70;;;3.50;99.90;;;;;;4202629;28;20555;-70
2023/04/07 01:45:42;;;;;;;13.43;6.57;;;3.50;99.90;;;;;;4202789;28;20559;-70
2023/04/07 01:47:46;;;;;;;12.03;6.27;;;3.50;99.90;;;;;;4208822;28;20463;-70
2023/04/07 01:49:49;;;;;;;10.43;6.37;;;3.40;99.90;;;;;;4204887;28;20863;-70
2023/04/07 01:51:51;;;;;;;8.70;6.20;;;3.40;99.90;;;;;;4207504;28;20547;-70
2023/04/07 01:53:54;;;;;;;12.07;6.20;;;3.30;99.90;;;;;;4204675;28;21096;-69
2023/04/07 01:55:56;;;;;;;13.03;6.77;;;3.30;99.90;;;;;;4206993;28;20555;-69
2023/04/07 01:57:58;;;;;;;11.13;6.03;;;3.30;99.90;;;;;;4204059;28;20557;-69
2023/04/07 02:00:00;;;;;;;13.63;6.60;;;3.30;99.90;;;;;;4201855;28;20757;-69
2023/04/07 02:02:02;;;;;;;12.97;6.93;;;3.30;99.90;;;;;;4204892;28;20848;-69
2023/04/07 02:04:11;;;;;;;11.67;6.83;;;3.30;99.90;;;;;;4205476;28;20483;-70
2023/04/07 02:06:25;;;;;;;16.83;7.47;;;3.30;99.90;;;;;;4198832;28;20475;-70
2023/04/07 02:08:29;;;;;;;14.13;6.83;;;3.20;99.90;;;;;;4210241;28;20883;-69
2023/04/07 02:10:35;;;;;;;12.83;7.37;;;3.20;99.90;;;;;;4202413;28;20460;-70
2023/04/07 02:12:39;;;;;;;11.93;6.43;;;3.20;99.90;;;;;;4211009;28;20482;-70
2023/04/07 02:14:41;;;;;;;12.50;6.83;;;3.10;99.90;;;;;;4206832;28;20917;-70
2023/04/07 02:16:45;;;;;;;12.00;6.80;;;3.10;99.90;;;;;;4202850;28;20471;-70
2023/04/07 02:18:47;;;;;;;13.13;6.83;;;3.10;99.90;;;;;;4210762;28;20551;-70
2023/04/07 02:20:53;;;;;;;13.10;7.00;;;3.10;99.90;;;;;;4200234;28;20500;-70
2023/04/07 02:22:55;;;;;;;12.70;7.13;;;3.10;99.90;;;;;;4205764;28;20471;-72
2023/04/07 02:24:57;;;;;;;10.60;6.67;;;3.00;99.90;;;;;;4201984;28;20464;-71
2023/04/07 02:27:00;;;;;;;13.93;6.70;;;3.00;99.90;;;;;;4201304;28;20475;-72
2023/04/07 02:29:03;;;;;;;11.90;6.43;;;3.00;99.90;;;;;;4203966;28;20449;-72
2023/04/07 02:31:05;;;;;;;12.63;7.27;;;3.00;99.90;;;;;;4196672;28;20443;-72
2023/04/07 02:33:06;;;;;;;12.13;7.27;;;3.00;99.90;;;;;;4198424;28;20464;-71
2023/04/07 02:35:09;;;;;;;11.83;6.80;;;3.00;99.90;;;;;;4203272;28;20501;-72
2023/04/07 02:37:12;;;;;;;13.47;7.03;;;2.90;99.90;;;;;;4200944;28;20858;-72
2023/04/07 02:39:14;;;;;;;12.93;7.07;;;2.90;99.90;;;;;;4200947;28;20440;-70
2023/04/07 02:41:16;;;;;;;12.83;6.63;;;2.80;99.90;;;;;;4201903;28;20463;-71
2023/04/07 02:43:20;;;;;;;14.83;7.03;;;2.90;99.90;;;;;;4200748;28;20448;-71
2023/04/07 02:45:22;;;;;;;12.63;6.77;;;2.80;99.90;;;;;;4199792;28;20492;-72
2023/04/07 02:47:24;;;;;;;10.87;5.90;;;2.80;99.90;;;;;;4202762;28;20445;-72
2023/04/07 02:49:26;;;;;;;13.77;6.87;;;2.80;99.90;;;;;;4200571;28;20955;-71
2023/04/07 02:51:28;;;;;;;11.83;6.30;;;2.80;99.90;;;;;;4199783;28;20866;-72
2023/04/07 02:53:32;;;;;;;12.23;6.27;;;2.80;99.90;;;;;;4200364;28;20924;-72
2023/04/07 02:55:33;;;;;;;10.23;5.97;;;2.70;99.90;;;;;;4199975;28;20487;-73
2023/04/07 02:57:35;;;;;;;9.73;6.07;;;2.70;99.90;;;;;;4200525;28;20459;-72
2023/04/07 02:59:37;;;;;;;11.00;6.10;;;2.70;99.90;;;;;;4201549;28;20453;-72
2023/04/07 03:01:39;;;;;;;8.57;5.80;;;2.60;99.90;;;;;;4202992;28;20451;-72
2023/04/07 03:03:43;;;;;;;11.00;6.40;;;2.70;99.90;;;;;;4202729;28;20889;-71
2023/04/07 03:05:45;;;;;;;10.57;6.17;;;2.60;99.90;;;;;;4198204;28;20486;-71
2023/04/07 03:07:47;;;;;;;11.30;6.27;;;2.60;99.90;;;;;;4201725;28;20981;-70
2023/04/07 03:09:51;;;;;;;10.37;6.13;;;2.60;99.90;;;;;;4203709;28;20492;-71
2023/04/07 03:11:52;;;;;;;10.00;6.47;;;2.60;99.90;;;;;;4200844;28;20860;-72
2023/04/07 03:13:54;;;;;;;10.87;6.30;;;2.60;99.90;;;;;;4202243;28;20511;-73
2023/04/07 03:15:56;;;;;;;11.43;6.23;;;2.50;99.90;;;;;;4196733;28;20510;-72
2023/04/07 03:17:58;;;;;;;11.83;6.60;;;2.50;99.90;;;;;;4200121;28;20466;-72
2023/04/07 03:20:00;;;;;;;9.53;6.13;;;2.50;99.90;;;;;;4201643;28;20968;-72
2023/04/07 03:22:02;;;;;;;12.10;6.20;;;2.50;99.90;;;;;;4197849;28;21068;-71
2023/04/07 03:24:04;;;;;;;12.40;6.20;;;2.50;99.90;;;;;;4201546;28;20471;-72
2023/04/07 03:26:08;;;;;;;11.73;6.83;;;2.50;99.90;;;;;;4196382;28;21346;-71
2023/04/07 03:28:10;;;;;;;11.20;6.47;;;2.50;99.90;;;;;;4200653;28;20450;-70
2023/04/07 03:30:12;;;;;;;9.73;6.50;;;2.50;99.90;;;;;;4201435;28;21444;-71
2023/04/07 03:32:14;;;;;;;12.27;6.20;;;2.40;99.90;;;;;;4199933;28;20459;-72
2023/04/07 03:34:16;;;;;;;10.23;5.97;;;2.40;99.90;;;;;;4201756;28;21005;-71
2023/04/07 03:36:18;;;;;;;10.13;5.80;;;2.40;99.90;;;;;;4201966;28;20500;-71
2023/04/07 03:38:21;;;;;;;12.30;6.40;;;2.40;99.90;;;;;;4197290;28;20454;-70
2023/04/07 03:40:23;;;;;;;10.53;5.77;;;2.40;99.90;;;;;;4202768;28;20485;-70
2023/04/07 03:42:26;;;;;;;10.70;6.27;;;2.40;99.90;;;;;;4196353;28;20477;-72
2023/04/07 03:44:28;;;;;;;11.77;5.93;;;2.30;99.90;;;;;;4200359;28;21090;-73
2023/04/07 03:46:31;;;;;;;9.63;6.03;;;2.30;99.90;;;;;;4200633;28;21336;-73
2023/04/07 03:48:33;;;;;;;10.40;5.67;;;2.30;99.90;;;;;;4199675;28;20860;-72
2023/04/07 03:50:35;;;;;;;10.97;5.90;;;2.30;99.90;;;;;;4202867;28;20838;-73
2023/04/07 03:52:37;;;;;;;8.23;5.63;;;2.30;99.90;;;;;;4200507;28;20502;-72
2023/04/07 03:54:38;;;;;;;12.00;6.40;;;2.30;99.90;;;;;;4202000;28;20510;-72
2023/04/07 03:56:41;;;;;;;11.17;6.00;;;2.20;99.90;;;;;;4202175;28;20561;-71
2023/04/07 03:58:45;;;;;;;9.63;5.73;;;2.20;99.90;;;;;;4200604;28;20508;-71
2023/04/07 04:00:47;;;;;;;12.40;6.10;;;2.20;99.90;;;;;;4203344;28;20496;-71
2023/04/07 04:02:50;;;;;;;12.13;5.93;;;2.20;99.90;;;;;;4198951;28;20460;-72
2023/04/07 04:04:52;;;;;;;11.27;6.30;;;2.20;99.90;;;;;;4196600;28;20444;-71
2023/04/07 04:06:54;;;;;;;9.43;6.10;;;2.20;99.90;;;;;;4201216;28;20506;-71
2023/04/07 04:08:56;;;;;;;9.67;5.90;;;2.10;99.90;;;;;;4200802;28;20513;-72
2023/04/07 04:10:58;;;;;;;9.20;6.23;;;2.10;99.90;;;;;;4199220;28;20508;-72
2023/04/07 04:13:02;;;;;;;11.10;6.50;;;2.10;99.90;;;;;;4198560;28;20447;-71
2023/04/07 04:15:07;;;;;;;8.93;6.07;;;2.10;99.90;;;;;;4197889;28;20536;-71
2023/04/07 04:17:09;;;;;;;10.77;6.07;;;2.00;99.90;;;;;;4200694;28;20463;-72
2023/04/07 04:19:10;;;;;;;12.73;6.10;;;2.00;99.90;;;;;;4199966;28;20549;-72
2023/04/07 04:21:12;;;;;;;11.63;6.00;;;2.00;99.90;;;;;;4197735;28;20454;-71
2023/04/07 04:23:14;;;;;;;12.53;6.20;;;2.00;99.90;;;;;;4200489;28;20450;-71
2023/04/07 04:25:17;;;;;;;13.47;6.30;;;2.00;99.90;;;;;;4201942;28;20467;-72
2023/04/07 04:27:19;;;;;;;11.63;5.80;;;2.00;99.90;;;;;;4200160;28;20557;-71
2023/04/07 04:29:21;;;;;;;11.53;6.20;;;2.00;99.90;;;;;;4200650;28;20479;-72
2023/04/07 04:31:24;;;;;;;9.60;6.17;;;1.90;99.90;;;;;;4198318;28;20542;-69
2023/04/07 04:33:26;;;;;;;13.67;6.73;;;1.90;99.90;;;;;;4203653;28;20446;-71
2023/04/07 04:35:28;;;;;;;11.33;5.83;;;1.90;99.90;;;;;;4208501;28;20566;-69
2023/04/07 04:37:31;;;;;;;13.37;6.60;;;2.00;99.90;;;;;;4197711;28;20943;-69
2023/04/07 04:39:33;;;;;;;10.00;5.87;;;1.90;99.90;;;;;;4194335;28;20808;-70
2023/04/07 04:41:35;;;;;;;10.37;6.10;;;1.90;99.90;;;;;;4198020;28;20466;-69
2023/04/07 04:43:37;;;;;;;10.53;5.53;;;1.90;99.90;;;;;;4207401;28;20451;-69
2023/04/07 04:45:39;;;;;;;11.30;5.87;;;1.90;99.90;;;;;;4202713;28;20566;-70
2023/04/07 04:47:43;;;;;;;9.33;5.73;;;1.90;99.90;;;;;;4200206;28;20491;-69
2023/04/07 04:49:44;;;;;;;11.87;5.73;;;1.80;99.90;;;;;;4207044;28;20463;-71
2023/04/07 04:51:46;;;;;;;9.93;6.13;;;1.80;99.90;;;;;;4205793;28;20451;-69
2023/04/07 04:53:48;;;;;;;12.57;6.20;;;2.10;99.90;;;;;;4201552;28;20462;-69
2023/04/07 04:55:52;;;;;;;14.63;6.50;;;1.80;99.90;;;;;;4211762;28;20901;-69
2023/04/07 04:57:54;;;;;;;11.73;6.07;;;1.80;99.90;;;;;;4211616;28;20500;-70
2023/04/07 04:59:56;;;;;;;12.87;6.47;;;1.80;99.90;;;;;;4204992;28;20452;-70
2023/04/07 05:01:58;;;;;;;10.20;6.40;;;1.80;99.90;;;;;;4206047;28;20876;-70
2023/04/07 05:04:01;;;;;;;10.87;6.57;;;1.80;99.90;;;;;;4206527;28;20451;-70
2023/04/07 05:06:03;;;;;;;12.10;6.13;;;1.80;99.90;;;;;;4199362;28;20491;-69
2023/04/07 05:08:06;;;;;;;10.63;6.43;;;1.80;99.90;;;;;;4206085;28;20443;-70
2023/04/07 05:10:09;;;;;;;12.10;6.47;;;1.80;99.90;;;;;;4199900;28;21002;-70
2023/04/07 05:12:11;;;;;;;9.73;6.13;;;1.80;99.90;;;;;;4202567;28;20801;-69
2023/04/07 05:14:12;;;;;;;9.53;6.27;;;1.70;99.90;;;;;;4201386;28;20443;-70
2023/04/07 05:16:15;;;;;;;9.87;5.70;;;1.70;99.90;;;;;;4204391;28;20505;-70
2023/04/07 05:18:17;;;;;;;10.80;5.80;;;1.70;99.90;;;;;;4200981;28;20523;-69
2023/04/07 05:20:20;;;;;;;11.03;6.20;;;1.70;99.90;;;;;;4207341;28;20870;-69
2023/04/07 05:22:22;;;;;;;10.40;6.00;;;1.70;99.90;;;;;;4202910;28;20459;-69
2023/04/07 05:24:27;;;;;;;9.60;5.97;;;1.70;99.90;;;;;;4207952;28;20511;-69
2023/04/07 05:26:29;;;;;;;9.77;6.20;;;1.70;99.90;;;;;;4206185;28;20476;-69
2023/04/07 05:28:31;;;;;;;7.97;5.43;;;1.70;99.90;;;;;;4207412;28;20473;-70
2023/04/07 05:30:33;;;;;;;12.33;6.37;;;1.60;99.90;;;;;;4203209;28;20516;-70
2023/04/07 05:32:34;;;;;;;9.93;6.13;;;1.60;99.90;;;;;;4202828;28;20466;-71
2023/04/07 05:34:36;;;;;;;10.97;6.27;;;1.60;99.90;;;;;;4203623;28;20843;-69
2023/04/07 05:36:40;;;;;;;10.67;6.10;;;1.60;99.90;;;;;;4200828;28;20483;-70
2023/04/07 05:38:42;;;;;;;10.50;6.00;;;1.60;99.90;;;;;;4197436;28;20447;-71
2023/04/07 05:40:44;;;;;;;10.87;6.80;;;1.60;99.90;;;;;;4201467;28;20471;-69
2023/04/07 05:42:46;;;;;;;11.93;6.70;;;1.70;99.90;;;;;;4206130;28;20846;-70
2023/04/07 05:44:48;;;;;;;10.87;6.30;;;1.70;99.90;;;;;;4209041;28;20885;-70
2023/04/07 05:46:50;;;;;;;11.73;6.10;;;1.60;99.90;;;;;;4201813;28;20490;-70
2023/04/07 05:48:52;;;;;;;12.67;6.60;;;1.70;99.90;;;;;;4208873;28;20451;-70
2023/04/07 05:50:54;;;;;;;13.27;7.00;;;1.70;99.90;;;;;;4201654;28;20447;-71
2023/04/07 05:52:58;;;;;;;12.80;7.07;;;1.70;99.90;;;;;;4202515;28;20455;-70
2023/04/07 05:55:00;;;;;;;11.23;6.53;;;1.70;99.90;;;;;;4203547;28;21006;-70
2023/04/07 05:57:02;;;;;;;9.47;6.10;;;1.70;99.90;;;;;;4202133;28;20976;-69
2023/04/07 05:59:04;;;;;;;12.77;6.50;;;1.70;99.90;;;;;;4207586;28;20480;-69
2023/04/07 06:01:06;;;;;;;12.23;6.80;;;1.70;99.90;;;;;;4201136;28;20460;-69
2023/04/07 06:03:08;;;;;;;11.33;6.63;;;1.60;99.90;;;;;;4200995;28;20968;-71
2023/04/07 06:05:10;;;;;;;12.93;7.20;;;1.70;99.90;;;;;;4199311;28;20526;-71
2023/04/07 06:07:12;;;;;;;13.00;6.73;;;1.70;99.90;;;;;;4201844;28;20482;-71
2023/04/07 06:09:15;;;;;;;12.57;6.73;;;1.70;99.90;;;;;;4200673;28;20982;-71
2023/04/07 06:11:17;;;;;;;13.87;7.33;;;1.60;99.90;;;;;;4202317;28;20463;-71
2023/04/07 06:13:19;;;;;;;12.10;6.67;;;1.70;99.90;;;;;;4203676;28;20463;-71
2023/04/07 06:15:24;;;;;;;11.87;6.73;;;1.70;99.90;;;;;;4201803;28;21015;-71
2023/04/07 06:17:27;;;;;;;12.27;6.93;;;1.70;99.90;;;;;;4199913;28;20445;-71
2023/04/07 06:19:28;;;;;;;14.03;7.50;;;1.70;99.90;;;;;;4202217;28;20442;-71
2023/04/07 06:21:30;;;;;;;11.63;7.17;;;1.70;99.90;;;;;;4200496;28;20488;-71
2023/04/07 06:23:32;;;;;;;11.33;6.57;;;1.70;99.90;;;;;;4201735;28;20462;-72
2023/04/07 06:25:36;;;;;;;11.20;6.80;;;1.70;99.90;;;;;;4199913;28;20524;-71
2023/04/07 06:27:38;;;;;;;11.43;6.67;;;1.70;99.90;;;;;;4195524;28;20458;-71
2023/04/07 06:29:40;;;;;;;11.30;6.70;;;1.80;99.90;;;;;;4201658;28;20451;-71
2023/04/07 06:31:41;;;;;;;13.33;7.17;;;1.80;99.90;;;;;;4197748;28;20926;-71
2023/04/07 06:33:44;;;;;;;12.40;7.13;;;1.80;99.90;;;;;;4203693;28;20549;-72
2023/04/07 06:35:46;;;;;;;13.57;6.57;;;1.80;99.90;;;;;;4201522;28;20523;-70
2023/04/07 06:37:48;;;;;;;10.93;6.60;;;1.80;99.90;;;;;;4201314;28;20545;-72
2023/04/07 06:39:50;;;;;;;11.30;7.10;;;1.80;99.90;;;;;;4199299;28;20900;-72
2023/04/07 06:41:53;;;;;;;10.77;6.40;;;1.90;99.90;;;;;;4201791;28;20456;-72
2023/04/07 06:43:55;;;;;;;11.63;6.57;;;1.90;99.90;;;;;;4202990;28;20450;-72
2023/04/07 06:45:57;;;;;;;10.13;6.47;;;1.90;99.90;;;;;;4199824;28;20489;-71
2023/04/07 06:47:59;;;;;;;13.57;7.27;;;2.00;99.90;;;;;;4210059;28;20455;-72
2023/04/07 06:50:01;;;;;;;11.80;6.33;;;2.00;99.90;;;;;;4202580;28;20456;-72
2023/04/07 06:52:03;;;;;;;13.17;7.43;;;2.00;99.90;;;;;;4197140;28;20814;-71
2023/04/07 06:54:06;;;;;;;11.80;6.57;;;2.00;99.90;;;;;;4200639;28;20471;-71
2023/04/07 06:56:10;;;;;;;12.50;6.63;;;2.10;99.90;;;;;;4199785;28;21282;-72
2023/04/07 06:58:14;;;;;;;10.80;6.57;;;2.10;99.90;;;;;;4201122;28;20462;-73
2023/04/07 07:00:19;;;;;;;11.37;6.67;;;2.10;99.90;;;;;;4200272;28;20483;-70
2023/04/07 07:02:21;;;;;;;11.47;7.03;;;2.20;99.90;;;;;;4206895;28;20436;-70
2023/04/07 07:04:23;;;;;;;12.03;7.00;;;2.20;99.90;;;;;;4202106;28;20809;-70
2023/04/07 07:06:25;;;;;;;11.43;7.00;;;2.20;99.90;;;;;;4195257;28;20468;-70
2023/04/07 07:08:28;;;;;;;12.53;6.83;;;2.30;99.90;;;;;;4208709;28;20454;-70
2023/04/07 07:10:30;;;;;;;10.50;6.27;;;2.30;99.90;;;;;;4204253;28;20440;-70
2023/04/07 07:12:32;;;;;;;12.63;6.77;;;2.40;99.90;;;;;;4203919;28;20451;-69
2023/04/07 07:14:36;;;;;;;10.27;5.93;;;2.40;99.90;;;;;;4203474;28;21369;-70
2023/04/07 07:16:38;;;;;;;10.90;6.80;;;2.40;99.90;;;;;;4199711;28;20495;-70
2023/04/07 07:18:40;;;;;;;10.43;6.33;;;2.50;99.90;;;;;;4201065;28;20444;-70
2023/04/07 07:20:41;;;;;;;13.00;6.67;;;2.50;99.90;;;;;;4199265;28;20490;-71
2023/04/07 07:22:43;;;;;;;10.87;6.57;;;2.60;99.90;;;;;;4201227;28;20468;-73
2023/04/07 07:24:45;;;;;;;10.43;6.67;;;2.60;99.90;;;;;;4202055;28;20437;-69
2023/04/07 07:26:47;;;;;;;12.57;6.57;;;2.60;99.90;;;;;;4199511;28;20497;-71
2023/04/07 07:28:49;;;;;;;10.97;6.40;;;2.70;99.90;;;;;;4201480;28;20497;-69
2023/04/07 07:30:53;;;;;;;11.60;6.80;;;2.70;99.90;;;;;;4199802;28;20459;-69
2023/04/07 07:32:56;;;;;;;10.07;5.90;;;2.80;99.90;;;;;;4200332;28;20465;-69
2023/04/07 07:34:59;;;;;;;8.43;5.80;;;2.80;99.90;;;;;;4201668;28;20892;-72
2023/04/07 07:37:01;;;;;;;9.57;5.97;;;2.80;99.90;;;;;;4197948;28;20559;-69
2023/04/07 07:39:03;;;;;;;8.90;5.93;;;2.90;99.90;;;;;;4204541;28;20447;-69
2023/04/07 07:41:06;;;;;;;11.00;6.50;;;3.00;99.90;;;;;;4208851;28;20463;-69
2023/04/07 07:43:08;;;;;;;12.80;6.97;;;3.10;99.90;;;;;;4210123;28;20883;-70
2023/04/07 07:45:11;;;;;;;9.80;6.10;;;3.20;99.90;;;;;;4200785;28;20464;-69
2023/04/07 07:47:14;;;;;;;12.83;7.00;;;3.30;99.90;;;;;;4202081;28;20448;-68
2023/04/07 07:49:17;;;;;;;11.60;6.30;;;3.30;99.90;;;;;;4201481;28;20463;-70
2023/04/07 07:51:19;;;;;;;11.63;6.80;;;3.40;99.90;;;;;;4202240;28;20505;-70
2023/04/07 07:53:21;;;;;;;11.33;6.67;;;3.50;99.90;;;;;;4204582;28;20493;-70
2023/04/07 07:55:23;;;;;;;10.27;6.33;;;3.60;99.90;;;;;;4202602;28;20515;-70
2023/04/07 07:57:25;;;;;;;12.33;6.80;;;3.70;99.90;;;;;;4198000;28;20532;-69
2023/04/07 07:59:27;;;;;;;12.27;6.47;;;3.70;99.90;;;;;;4207697;28;20836;-69
2023/04/07 08:01:29;;;;;;;9.90;5.97;;;3.80;99.90;;;;;;4202856;28;20460;-69
2023/04/07 08:03:32;;;;;;;10.60;6.27;;;3.90;99.90;;;;;;4201181;28;20539;-69
2023/04/07 08:05:34;;;;;;;9.20;5.93;;;4.00;99.90;;;;;;4207163;28;20468;-70
2023/04/07 08:07:36;;;;;;;10.53;6.37;;;4.00;99.90;;;;;;4202003;28;21413;-69
2023/04/07 08:09:38;;;;;;;10.77;6.40;;;4.00;99.90;;;;;;4203436;28;20980;-70
2023/04/07 08:11:40;;;;;;;11.37;6.70;;;4.10;99.90;;;;;;4206199;28;20452;-70
2023/04/07 08:13:44;;;;;;;11.17;6.27;;;4.20;99.90;;;;;;4198290;28;20449;-70
2023/04/07 08:15:46;;;;;;;10.80;6.60;;;4.30;99.90;;;;;;4208167;28;20938;-70
2023/04/07 08:17:48;;;;;;;10.80;6.57;;;4.30;99.90;;;;;;4206354;28;20459;-69
2023/04/07 08:19:51;;;;;;;11.77;6.40;;;4.40;99.90;;;;;;4206074;28;20489;-69
2023/04/07 08:21:53;;;;;;;14.00;6.70;;;4.50;99.90;;;;;;4205834;28;20479;-70
2023/04/07 08:23:55;;;;;;;10.03;6.00;;;4.50;99.90;;;;;;4204563;28;20861;-69
2023/04/07 08:25:57;;;;;;;9.77;6.30;;;4.60;99.90;;;;;;4211757;28;20487;-70
2023/04/07 08:27:59;;;;;;;11.67;5.53;;;4.70;99.90;;;;;;4204739;28;21155;-70
2023/04/07 08:30:03;;;;;;;9.97;5.40;;;4.90;99.90;;;;;;4201876;28;21078;-71
2023/04/07 08:32:05;;;;;;;10.83;6.57;;;5.00;99.90;;;;;;4206439;28;20453;-69
2023/04/07 08:34:07;;;;;;;17.77;8.53;;;5.20;99.90;;;;;;4207548;28;20448;-70
2023/04/07 08:36:10;;;;;;;16.67;8.03;;;5.30;99.90;;;;;;4201896;28;20484;-71
2023/04/07 08:38:12;;;;;;;13.83;7.37;;;5.50;99.90;;;;;;4206430;28;20480;-68
2023/04/07 08:40:15;;;;;;;14.07;7.00;;;5.60;99.90;;;;;;4204356;28;20496;-70
2023/04/07 08:42:18;;;;;;;13.53;6.63;;;5.80;99.90;;;;;;4202397;28;20468;-70
2023/04/07 08:44:22;;;;;;;12.40;6.37;;;5.90;99.90;;;;;;4201292;28;20514;-70
2023/04/07 08:46:26;;;;;;;10.93;5.80;;;6.10;99.90;;;;;;4205848;28;20458;-71
2023/04/07 08:48:32;;;;;;;11.27;5.23;;;6.20;99.90;;;;;;4204180;28;20458;-71
2023/04/07 08:50:35;;;;;;;11.80;5.67;;;6.40;99.90;;;;;;4203965;28;20493;-69
2023/04/07 08:52:44;;;;;;;15.47;6.33;;;6.60;99.90;;;;;;4201772;28;20458;-70
2023/04/07 08:54:46;;;;;;;11.23;6.20;;;6.70;99.90;;;;;;4198939;28;20473;-70
2023/04/07 08:56:48;;;;;;;11.47;6.00;;;6.90;99.90;;;;;;4203292;28;21037;-70
2023/04/07 08:58:51;;;;;;;10.63;5.57;;;7.00;99.90;;;;;;4207128;28;20447;-70
2023/04/07 09:00:53;;;;;;;9.27;5.23;;;7.20;99.90;;;;;;4206555;28;20514;-70
2023/04/07 09:02:55;;;;;;;10.43;5.73;;;7.40;99.90;;;;;;4202931;28;20490;-70
2023/04/07 09:04:57;;;;;;;11.37;6.00;;;7.50;99.90;;;;;;4207215;28;20439;-69
2023/04/07 09:07:00;;;;;;;12.20;6.73;;;7.70;99.90;;;;;;4211996;28;20252;-69
2023/04/07 09:09:05;;;;;;;12.23;6.50;;;7.80;99.90;;;;;;4206902;28;20213;-69
2023/04/07 09:11:07;;;;;;;12.43;6.27;;;8.00;99.90;;;;;;4200887;28;20228;-69
2023/04/07 09:13:09;;;;;;;10.67;5.67;;;8.10;99.90;;;;;;4207462;28;20266;-70
2023/04/07 09:15:11;;;;;;;12.43;6.10;;;8.30;99.90;;;;;;4207065;28;20210;-70
2023/04/07 09:17:13;;;;;;;13.00;5.73;;;8.40;99.90;;;;;;4206673;28;20256;-69
2023/04/07 09:19:15;;;;;;;10.63;5.60;;;8.60;94.60;;;;;;4210982;28;20209;-70
2023/04/07 09:21:17;;;;;;;11.13;5.73;;;8.70;87.10;;;;;;4204460;28;20214;-70
2023/04/07 09:23:31;;;;;;;13.17;6.03;;;8.80;85.60;;;;;;4200484;28;20212;-70
2023/04/07 09:25:35;;;;;;;10.17;5.57;;;9.00;89.40;;;;;;4207784;28;20591;-70
2023/04/07 09:27:36;;;;;;;10.93;6.27;;;9.00;79.40;;;;;;4205904;28;20199;-70
2023/04/07 09:29:40;;;;;;;10.53;5.60;;;9.20;81.80;;;;;;4202130;28;20209;-69
2023/04/07 09:31:47;;;;;;;11.07;5.97;;;9.30;86.40;;;;;;4208086;28;20207;-70
2023/04/07 09:33:49;;;;;;;11.20;5.87;;;9.40;81.50;;;;;;4205708;28;20210;-69
2023/04/07 09:35:55;;;;;;;8.33;5.53;;;9.60;76.40;;;;;;4200540;28;20236;-71
2023/04/07 09:38:05;;;;;;;10.77;6.27;;;9.60;73.60;;;;;;4204001;28;20208;-70
2023/04/07 09:40:08;;;;;;;10.50;5.63;;;9.70;70.60;;;;;;4202380;28;20564;-69
2023/04/07 09:42:11;;;;;;;9.67;4.97;;;9.80;65.50;;;;;;4213360;28;20206;-69
2023/04/07 09:44:14;;;;;;;9.77;5.10;;;9.90;67.50;;;;;;4207103;28;20232;-70
2023/04/07 09:46:17;;;;;;;7.87;4.70;;;10.00;67.90;;;;;;4203154;28;20224;-69
2023/04/07 09:48:20;;;;;;;8.83;4.97;;;10.10;64.10;;;;;;4201357;28;20331;-70
2023/04/07 09:50:33;;;;;;;8.90;4.67;;;10.20;64.60;;;;;;4206607;28;20212;-69
2023/04/07 09:52:52;;;;;;;10.23;5.73;;;10.30;63.30;;;;;;4208080;28;20201;-69
2023/04/07 09:54:55;;;;;;;9.37;5.00;;;10.40;59.20;;;;;;4207142;28;20252;-70
2023/04/07 09:56:58;;;;;;;9.17;5.17;;;10.50;57.20;;;;;;4210559;28;20289;-69
2023/04/07 09:59:02;;;;;;;9.20;4.97;;;10.50;56.10;;;;;;4202475;28;20658;-69
2023/04/07 10:01:09;;;;;;;7.87;4.97;;;10.60;56.90;;;;;;4201478;28;20675;-71
2023/04/07 10:03:12;;;;;;;7.70;5.00;;;10.70;55.30;;;;;;4201465;28;20287;-68
2023/04/07 10:05:14;;;;;;;8.23;5.27;;;10.80;56.90;;;;;;4202256;28;20205;-69
2023/04/07 10:07:16;;;;;;;8.97;5.03;;;10.80;55.40;;;;;;4202885;28;20520;-70
2023/04/07 10:09:18;;;;;;;11.87;5.10;;;10.90;55.80;;;;;;4213246;28;20217;-69
2023/04/07 10:11:20;;;;;;;9.70;5.47;;;11.00;56.30;;;;;;4197653;28;20237;-69
2023/04/07 10:13:23;;;;;;;11.83;5.70;;;11.00;62.00;;;;;;4204454;28;20843;-70
2023/04/07 10:15:26;;;;;;;11.40;5.83;;;11.10;58.70;;;;;;4200982;28;20213;-70
2023/04/07 10:17:28;;;;;;;9.77;5.87;;;11.30;61.90;;;;;;4208558;28;20700;-70
2023/04/07 10:19:32;;;;;;;7.03;4.70;;;11.40;59.20;;;;;;4202687;28;21316;-70
2023/04/07 10:21:37;;;;;;;8.90;5.63;;;11.50;56.40;;;;;;4205840;28;20217;-69
2023/04/07 10:23:56;;;;;;;8.40;5.03;;;11.70;54.20;;;;;;4206561;28;20218;-70
2023/04/07 10:25:59;;;;;;;7.57;4.90;;;11.80;52.90;;;;;;4204242;28;20809;-69
2023/04/07 10:28:08;;;;;;;10.40;5.30;;;12.00;53.10;;;;;;4205425;28;20561;-70
2023/04/07 10:30:15;;;;;;;10.77;5.50;;;12.10;52.60;;;;;;4201146;28;20300;-69
2023/04/07 10:32:19;;;;;;;8.23;4.80;;;12.30;52.10;;;;;;4203294;28;20247;-70
2023/04/07 10:34:52;;;;;;;6.57;4.57;;;12.40;49.30;;;;;;4201266;28;20313;-70
2023/04/07 10:37:09;;;;;;;9.20;4.90;;;12.60;48.50;;;;;;4204322;28;20690;-70
2023/04/07 10:39:22;;;;;;;8.40;5.37;;;12.70;49.20;;;;;;4200928;28;20218;-70
2023/04/07 10:41:35;;;;;;;10.03;5.23;;;12.90;50.20;;;;;;4210269;28;20739;-70
2023/04/07 10:43:39;;;;;;;8.57;5.43;;;13.00;49.50;;;;;;4203313;28;20203;-70